sensor_id;sensor_type;location;lat;lon;timestamp;P1;durP1;ratioP1;P2;durP2;ratioP2
25531;SDS011;13429;48.816;9.118;2023-05-15T00:01:03;7.22;;;4.30;;
25531;SDS011;13429;48.816;9.118;2023-05-15T00:03:29;5.78;;;4.75;;
25531;SDS011;13429;48.816;9.118;2023-05-15T00:05:55;7.07;;;4.78;;
25531;SDS011;13429;48.816;9.118;2023-05-15T00:08:22;12.43;;;8.48;;
25531;SDS011;13429;48.816;9.118;2023-05-15T00:10:48;11.43;;;7.45;;
25531;SDS011;13429;48.816;9.118;2023-05-15T00:13:15;8.13;;;6.47;;
25531;SDS011;13429;48.816;9.118;2023-05-15T00:15:41;10.93;;;7.20;;
25531;SDS011;13429;48.816;9.118;2023-05-15T00:18:07;7.30;;;5.65;;
25531;SDS011;13429;48.816;9.118;2023-05-15T00:20:33;7.30;;;5.53;;
25531;SDS011;13429;48.816;9.118;2023-05-15T00:22:59;7.75;;;5.13;;
25531;SDS011;13429;48.816;9.118;2023-05-15T00:25:25;6.38;;;4.65;;
25531;SDS011;13429;48.816;9.118;2023-05-15T00:27:51;7.05;;;4.50;;
25531;SDS011;13429;48.816;9.118;2023-05-15T00:30:17;6.35;;;4.35;;
25531;SDS011;13429;48.816;9.118;2023-05-15T00:32:43;6.53;;;4.13;;
25531;SDS011;13429;48.816;9.118;2023-05-15T00:35:09;6.93;;;4.47;;
25531;SDS011;13429;48.816;9.118;2023-05-15T00:37:35;6.22;;;4.70;;
25531;SDS011;13429;48.816;9.118;2023-05-15T00:40:01;8.60;;;5.13;;
25531;SDS011;13429;48.816;9.118;2023-05-15T00:42:28;8.15;;;4.50;;
25531;SDS011;13429;48.816;9.118;2023-05-15T00:44:55;8.25;;;5.50;;
25531;SDS011;13429;48.816;9.118;2023-05-15T00:47:21;8.07;;;5.15;;
25531;SDS011;13429;48.816;9.118;2023-05-15T00:49:48;8.55;;;5.10;;
25531;SDS011;13429;48.816;9.118;2023-05-15T00:52:14;7.70;;;4.30;;
25531;SDS011;13429;48.816;9.118;2023-05-15T00:54:40;6.70;;;5.03;;
25531;SDS011;13429;48.816;9.118;2023-05-15T00:57:07;8.57;;;5.82;;
25531;SDS011;13429;48.816;9.118;2023-05-15T00:59:33;8.60;;;6.13;;
25531;SDS011;13429;48.816;9.118;2023-05-15T01:01:59;8.02;;;5.32;;
25531;SDS011;13429;48.816;9.118;2023-05-15T01:04:25;6.55;;;5.18;;
25531;SDS011;13429;48.816;9.118;2023-05-15T01:06:52;8.15;;;4.97;;
25531;SDS011;13429;48.816;9.118;2023-05-15T01:09:18;10.23;;;6.10;;
25531;SDS011;13429;48.816;9.118;2023-05-15T01:11:44;7.78;;;5.82;;
25531;SDS011;13429;48.816;9.118;2023-05-15T01:14:11;9.95;;;5.72;;
25531;SDS011;13429;48.816;9.118;2023-05-15T01:16:37;7.35;;;5.03;;
25531;SDS011;13429;48.816;9.118;2023-05-15T01:19:04;7.63;;;4.68;;
25531;SDS011;13429;48.816;9.118;2023-05-15T01:29:07;9.45;;;5.43;;
25531;SDS011;13429;48.816;9.118;2023-05-15T01:31:36;9.52;;;5.63;;
25531;SDS011;13429;48.816;9.118;2023-05-15T01:34:04;10.32;;;6.75;;
25531;SDS011;13429;48.816;9.118;2023-05-15T01:36:34;10.25;;;5.63;;
25531;SDS011;13429;48.816;9.118;2023-05-15T01:39:01;11.70;;;6.20;;
25531;SDS011;13429;48.816;9.118;2023-05-15T01:41:30;7.50;;;5.72;;
25531;SDS011;13429;48.816;9.118;2023-05-15T01:44:05;11.07;;;5.70;;
25531;SDS011;13429;48.816;9.118;2023-05-15T01:46:33;7.57;;;5.45;;
25531;SDS011;13429;48.816;9.118;2023-05-15T01:49:01;11.88;;;6.13;;
25531;SDS011;13429;48.816;9.118;2023-05-15T01:51:27;10.20;;;5.55;;
25531;SDS011;13429;48.816;9.118;2023-05-15T01:53:54;8.50;;;5.78;;
25531;SDS011;13429;48.816;9.118;2023-05-15T01:56:22;9.27;;;6.38;;
25531;SDS011;13429;48.816;9.118;2023-05-15T01:58:49;7.72;;;5.90;;
25531;SDS011;13429;48.816;9.118;2023-05-15T02:01:16;7.95;;;6.15;;
25531;SDS011;13429;48.816;9.118;2023-05-15T02:03:43;7.65;;;5.65;;
25531;SDS011;13429;48.816;9.118;2023-05-15T02:06:10;8.65;;;5.63;;
25531;SDS011;13429;48.816;9.118;2023-05-15T02:08:37;16.88;;;5.95;;
25531;SDS011;13429;48.816;9.118;2023-05-15T02:11:04;8.43;;;6.07;;
25531;SDS011;13429;48.816;9.118;2023-05-15T02:13:30;7.85;;;5.65;;
25531;SDS011;13429;48.816;9.118;2023-05-15T02:15:56;8.05;;;5.43;;
25531;SDS011;13429;48.816;9.118;2023-05-15T02:18:23;7.53;;;5.15;;
25531;SDS011;13429;48.816;9.118;2023-05-15T02:20:49;6.05;;;4.50;;
25531;SDS011;13429;48.816;9.118;2023-05-15T02:23:15;6.80;;;4.78;;
25531;SDS011;13429;48.816;9.118;2023-05-15T02:28:30;8.63;;;5.10;;
25531;SDS011;13429;48.816;9.118;2023-05-15T02:31:03;6.47;;;4.80;;
25531;SDS011;13429;48.816;9.118;2023-05-15T02:35:58;8.40;;;5.82;;
25531;SDS011;13429;48.816;9.118;2023-05-15T02:38:27;6.75;;;4.88;;
25531;SDS011;13429;48.816;9.118;2023-05-15T02:40:54;6.80;;;4.95;;
25531;SDS011;13429;48.816;9.118;2023-05-15T02:43:20;8.20;;;4.47;;
25531;SDS011;13429;48.816;9.118;2023-05-15T02:45:46;7.57;;;4.97;;
25531;SDS011;13429;48.816;9.118;2023-05-15T02:48:13;7.97;;;5.15;;
25531;SDS011;13429;48.816;9.118;2023-05-15T02:50:41;6.85;;;5.03;;
25531;SDS011;13429;48.816;9.118;2023-05-15T02:53:07;8.13;;;4.88;;
25531;SDS011;13429;48.816;9.118;2023-05-15T02:55:34;7.90;;;5.57;;
25531;SDS011;13429;48.816;9.118;2023-05-15T02:58:00;7.78;;;5.72;;
25531;SDS011;13429;48.816;9.118;2023-05-15T03:00:27;7.05;;;5.50;;
25531;SDS011;13429;48.816;9.118;2023-05-15T03:02:53;6.25;;;4.80;;
25531;SDS011;13429;48.816;9.118;2023-05-15T03:05:19;6.65;;;4.80;;
25531;SDS011;13429;48.816;9.118;2023-05-15T03:07:45;7.50;;;4.93;;
25531;SDS011;13429;48.816;9.118;2023-05-15T03:10:11;8.23;;;5.18;;
25531;SDS011;13429;48.816;9.118;2023-05-15T03:12:37;8.93;;;5.22;;
25531;SDS011;13429;48.816;9.118;2023-05-15T03:15:04;6.72;;;4.70;;
25531;SDS011;13429;48.816;9.118;2023-05-15T03:17:30;8.07;;;5.57;;
25531;SDS011;13429;48.816;9.118;2023-05-15T03:19:56;8.55;;;6.07;;
25531;SDS011;13429;48.816;9.118;2023-05-15T03:22:22;7.50;;;4.68;;
25531;SDS011;13429;48.816;9.118;2023-05-15T03:24:49;10.75;;;5.93;;
25531;SDS011;13429;48.816;9.118;2023-05-15T03:27:15;5.47;;;4.03;;
25531;SDS011;13429;48.816;9.118;2023-05-15T03:29:41;6.75;;;5.00;;
25531;SDS011;13429;48.816;9.118;2023-05-15T03:32:07;6.78;;;4.93;;
25531;SDS011;13429;48.816;9.118;2023-05-15T03:34:33;6.28;;;4.45;;
25531;SDS011;13429;48.816;9.118;2023-05-15T03:36:59;6.60;;;4.88;;
25531;SDS011;13429;48.816;9.118;2023-05-15T03:39:25;6.03;;;4.40;;
25531;SDS011;13429;48.816;9.118;2023-05-15T03:41:51;7.18;;;4.93;;
25531;SDS011;13429;48.816;9.118;2023-05-15T03:44:17;6.55;;;4.97;;
25531;SDS011;13429;48.816;9.118;2023-05-15T03:46:43;7.57;;;4.68;;
25531;SDS011;13429;48.816;9.118;2023-05-15T03:49:09;9.13;;;5.30;;
25531;SDS011;13429;48.816;9.118;2023-05-15T03:51:35;7.88;;;5.22;;
25531;SDS011;13429;48.816;9.118;2023-05-15T03:54:01;6.70;;;4.95;;
25531;SDS011;13429;48.816;9.118;2023-05-15T03:56:29;8.02;;;5.35;;
25531;SDS011;13429;48.816;9.118;2023-05-15T03:58:55;7.53;;;5.00;;
25531;SDS011;13429;48.816;9.118;2023-05-15T04:01:21;9.27;;;5.47;;
25531;SDS011;13429;48.816;9.118;2023-05-15T04:03:47;7.45;;;5.10;;
25531;SDS011;13429;48.816;9.118;2023-05-15T04:06:13;7.97;;;5.57;;
25531;SDS011;13429;48.816;9.118;2023-05-15T04:08:39;9.32;;;4.95;;
25531;SDS011;13429;48.816;9.118;2023-05-15T04:11:05;9.80;;;5.88;;
25531;SDS011;13429;48.816;9.118;2023-05-15T04:13:31;6.85;;;5.43;;
25531;SDS011;13429;48.816;9.118;2023-05-15T04:15:57;7.15;;;5.05;;
25531;SDS011;13429;48.816;9.118;2023-05-15T04:18:24;7.85;;;5.10;;
25531;SDS011;13429;48.816;9.118;2023-05-15T04:20:50;9.68;;;5.70;;
25531;SDS011;13429;48.816;9.118;2023-05-15T04:23:16;7.88;;;5.28;;
25531;SDS011;13429;48.816;9.118;2023-05-15T04:25:42;8.30;;;6.05;;
25531;SDS011;13429;48.816;9.118;2023-05-15T04:28:11;7.13;;;5.28;;
25531;SDS011;13429;48.816;9.118;2023-05-15T04:30:37;9.18;;;6.45;;
25531;SDS011;13429;48.816;9.118;2023-05-15T04:33:03;7.85;;;5.85;;
25531;SDS011;13429;48.816;9.118;2023-05-15T04:35:30;7.90;;;5.78;;
25531;SDS011;13429;48.816;9.118;2023-05-15T04:37:56;7.93;;;5.43;;
25531;SDS011;13429;48.816;9.118;2023-05-15T04:40:22;7.53;;;5.78;;
25531;SDS011;13429;48.816;9.118;2023-05-15T04:42:48;9.68;;;6.78;;
25531;SDS011;13429;48.816;9.118;2023-05-15T04:45:14;10.85;;;6.18;;
25531;SDS011;13429;48.816;9.118;2023-05-15T04:47:40;11.07;;;6.60;;
25531;SDS011;13429;48.816;9.118;2023-05-15T04:50:06;8.52;;;6.22;;
25531;SDS011;13429;48.816;9.118;2023-05-15T04:52:33;8.38;;;5.97;;
25531;SDS011;13429;48.816;9.118;2023-05-15T04:54:59;12.32;;;6.40;;
25531;SDS011;13429;48.816;9.118;2023-05-15T04:57:25;11.02;;;6.28;;
25531;SDS011;13429;48.816;9.118;2023-05-15T04:59:51;12.10;;;6.78;;
25531;SDS011;13429;48.816;9.118;2023-05-15T05:02:21;9.00;;;6.15;;
25531;SDS011;13429;48.816;9.118;2023-05-15T05:04:47;8.55;;;5.80;;
25531;SDS011;13429;48.816;9.118;2023-05-15T05:07:13;7.40;;;5.60;;
25531;SDS011;13429;48.816;9.118;2023-05-15T05:09:39;9.75;;;6.57;;
25531;SDS011;13429;48.816;9.118;2023-05-15T05:12:06;6.85;;;5.50;;
25531;SDS011;13429;48.816;9.118;2023-05-15T05:14:32;8.00;;;5.75;;
25531;SDS011;13429;48.816;9.118;2023-05-15T05:16:58;8.75;;;5.53;;
25531;SDS011;13429;48.816;9.118;2023-05-15T05:19:24;10.60;;;6.22;;
25531;SDS011;13429;48.816;9.118;2023-05-15T05:21:52;11.13;;;6.50;;
25531;SDS011;13429;48.816;9.118;2023-05-15T05:24:18;9.35;;;5.72;;
25531;SDS011;13429;48.816;9.118;2023-05-15T05:26:44;8.85;;;6.70;;
25531;SDS011;13429;48.816;9.118;2023-05-15T05:29:10;10.27;;;6.78;;
25531;SDS011;13429;48.816;9.118;2023-05-15T05:31:36;9.55;;;5.78;;
25531;SDS011;13429;48.816;9.118;2023-05-15T05:34:02;8.48;;;6.07;;
25531;SDS011;13429;48.816;9.118;2023-05-15T05:36:29;8.52;;;6.07;;
25531;SDS011;13429;48.816;9.118;2023-05-15T05:38:55;9.65;;;6.35;;
25531;SDS011;13429;48.816;9.118;2023-05-15T05:41:21;9.77;;;7.32;;
25531;SDS011;13429;48.816;9.118;2023-05-15T05:43:47;9.93;;;7.18;;
25531;SDS011;13429;48.816;9.118;2023-05-15T05:46:13;13.02;;;7.43;;
25531;SDS011;13429;48.816;9.118;2023-05-15T05:48:39;12.43;;;7.22;;
25531;SDS011;13429;48.816;9.118;2023-05-15T05:51:05;13.90;;;8.98;;
25531;SDS011;13429;48.816;9.118;2023-05-15T05:53:31;9.68;;;7.30;;
25531;SDS011;13429;48.816;9.118;2023-05-15T05:55:57;10.75;;;7.30;;
25531;SDS011;13429;48.816;9.118;2023-05-15T05:58:23;10.85;;;8.85;;
25531;SDS011;13429;48.816;9.118;2023-05-15T06:00:49;11.73;;;8.48;;
25531;SDS011;13429;48.816;9.118;2023-05-15T06:03:15;10.52;;;7.30;;
25531;SDS011;13429;48.816;9.118;2023-05-15T06:05:41;9.93;;;7.43;;
25531;SDS011;13429;48.816;9.118;2023-05-15T06:08:07;9.43;;;6.50;;
25531;SDS011;13429;48.816;9.118;2023-05-15T06:10:34;10.65;;;7.05;;
25531;SDS011;13429;48.816;9.118;2023-05-15T06:13:00;9.57;;;7.88;;
25531;SDS011;13429;48.816;9.118;2023-05-15T06:15:26;12.18;;;6.85;;
25531;SDS011;13429;48.816;9.118;2023-05-15T06:17:52;9.02;;;6.65;;
25531;SDS011;13429;48.816;9.118;2023-05-15T06:20:18;9.75;;;6.30;;
25531;SDS011;13429;48.816;9.118;2023-05-15T06:22:44;8.95;;;5.65;;
25531;SDS011;13429;48.816;9.118;2023-05-15T06:25:10;9.43;;;6.10;;
25531;SDS011;13429;48.816;9.118;2023-05-15T06:27:39;6.68;;;5.00;;
25531;SDS011;13429;48.816;9.118;2023-05-15T06:30:05;9.82;;;5.50;;
25531;SDS011;13429;48.816;9.118;2023-05-15T06:32:31;12.52;;;5.93;;
25531;SDS011;13429;48.816;9.118;2023-05-15T06:34:58;7.45;;;5.68;;
25531;SDS011;13429;48.816;9.118;2023-05-15T06:37:24;9.00;;;5.00;;
25531;SDS011;13429;48.816;9.118;2023-05-15T06:39:50;10.00;;;6.35;;
25531;SDS011;13429;48.816;9.118;2023-05-15T06:42:16;8.70;;;5.20;;
25531;SDS011;13429;48.816;9.118;2023-05-15T06:44:42;6.80;;;4.82;;
25531;SDS011;13429;48.816;9.118;2023-05-15T06:47:08;7.32;;;5.55;;
25531;SDS011;13429;48.816;9.118;2023-05-15T06:49:34;7.20;;;5.25;;
25531;SDS011;13429;48.816;9.118;2023-05-15T06:52:00;6.65;;;4.93;;
25531;SDS011;13429;48.816;9.118;2023-05-15T06:54:26;4.80;;;3.95;;
25531;SDS011;13429;48.816;9.118;2023-05-15T06:56:52;5.53;;;4.30;;
25531;SDS011;13429;48.816;9.118;2023-05-15T06:59:18;7.07;;;4.90;;
25531;SDS011;13429;48.816;9.118;2023-05-15T07:01:44;4.75;;;3.72;;
25531;SDS011;13429;48.816;9.118;2023-05-15T07:04:10;7.28;;;4.57;;
25531;SDS011;13429;48.816;9.118;2023-05-15T07:06:36;5.07;;;4.05;;
25531;SDS011;13429;48.816;9.118;2023-05-15T07:09:02;6.75;;;4.95;;
25531;SDS011;13429;48.816;9.118;2023-05-15T07:11:28;5.90;;;4.30;;
25531;SDS011;13429;48.816;9.118;2023-05-15T07:13:54;6.13;;;4.53;;
25531;SDS011;13429;48.816;9.118;2023-05-15T07:16:20;6.53;;;4.45;;
25531;SDS011;13429;48.816;9.118;2023-05-15T07:18:46;6.82;;;4.15;;
25531;SDS011;13429;48.816;9.118;2023-05-15T07:21:12;8.27;;;4.55;;
25531;SDS011;13429;48.816;9.118;2023-05-15T07:23:38;6.30;;;4.95;;
25531;SDS011;13429;48.816;9.118;2023-05-15T07:26:04;6.05;;;4.40;;
25531;SDS011;13429;48.816;9.118;2023-05-15T07:28:30;6.57;;;4.65;;
25531;SDS011;13429;48.816;9.118;2023-05-15T07:30:57;4.97;;;3.72;;
25531;SDS011;13429;48.816;9.118;2023-05-15T07:33:23;7.20;;;4.82;;
25531;SDS011;13429;48.816;9.118;2023-05-15T07:35:49;8.98;;;4.57;;
25531;SDS011;13429;48.816;9.118;2023-05-15T07:38:16;5.47;;;4.00;;
25531;SDS011;13429;48.816;9.118;2023-05-15T07:40:42;6.47;;;4.40;;
25531;SDS011;13429;48.816;9.118;2023-05-15T07:43:08;5.50;;;4.40;;
25531;SDS011;13429;48.816;9.118;2023-05-15T07:45:34;8.32;;;4.68;;
25531;SDS011;13429;48.816;9.118;2023-05-15T07:48:11;5.10;;;4.05;;
25531;SDS011;13429;48.816;9.118;2023-05-15T07:50:38;7.05;;;4.15;;
25531;SDS011;13429;48.816;9.118;2023-05-15T07:53:04;4.68;;;3.80;;
25531;SDS011;13429;48.816;9.118;2023-05-15T07:55:30;10.27;;;3.38;;
25531;SDS011;13429;48.816;9.118;2023-05-15T07:57:56;4.35;;;3.20;;
25531;SDS011;13429;48.816;9.118;2023-05-15T08:00:22;7.70;;;4.38;;
25531;SDS011;13429;48.816;9.118;2023-05-15T08:02:48;4.22;;;3.22;;
25531;SDS011;13429;48.816;9.118;2023-05-15T08:05:14;5.18;;;3.50;;
25531;SDS011;13429;48.816;9.118;2023-05-15T08:07:40;5.50;;;3.30;;
25531;SDS011;13429;48.816;9.118;2023-05-15T08:10:07;3.05;;;2.45;;
25531;SDS011;13429;48.816;9.118;2023-05-15T08:12:33;3.53;;;2.22;;
25531;SDS011;13429;48.816;9.118;2023-05-15T08:14:59;8.48;;;3.50;;
25531;SDS011;13429;48.816;9.118;2023-05-15T08:17:25;5.20;;;3.45;;
25531;SDS011;13429;48.816;9.118;2023-05-15T08:19:51;5.18;;;3.15;;
25531;SDS011;13429;48.816;9.118;2023-05-15T08:22:18;6.38;;;3.20;;
25531;SDS011;13429;48.816;9.118;2023-05-15T08:24:44;6.35;;;3.88;;
25531;SDS011;13429;48.816;9.118;2023-05-15T08:27:10;5.63;;;3.78;;
25531;SDS011;13429;48.816;9.118;2023-05-15T08:29:36;4.50;;;2.80;;
25531;SDS011;13429;48.816;9.118;2023-05-15T08:32:02;6.32;;;3.88;;
25531;SDS011;13429;48.816;9.118;2023-05-15T08:34:29;5.38;;;3.72;;
25531;SDS011;13429;48.816;9.118;2023-05-15T08:36:55;4.20;;;2.80;;
25531;SDS011;13429;48.816;9.118;2023-05-15T08:39:21;4.13;;;2.85;;
25531;SDS011;13429;48.816;9.118;2023-05-15T08:44:13;3.30;;;2.47;;
25531;SDS011;13429;48.816;9.118;2023-05-15T08:46:39;3.97;;;2.90;;
25531;SDS011;13429;48.816;9.118;2023-05-15T08:49:10;8.93;;;3.40;;
25531;SDS011;13429;48.816;9.118;2023-05-15T08:51:36;8.15;;;2.90;;
25531;SDS011;13429;48.816;9.118;2023-05-15T08:54:02;6.47;;;3.25;;
25531;SDS011;13429;48.816;9.118;2023-05-15T08:56:29;6.25;;;3.30;;
25531;SDS011;13429;48.816;9.118;2023-05-15T08:58:56;5.65;;;3.80;;
25531;SDS011;13429;48.816;9.118;2023-05-15T09:01:22;6.95;;;3.63;;
25531;SDS011;13429;48.816;9.118;2023-05-15T09:03:48;4.88;;;3.15;;
25531;SDS011;13429;48.816;9.118;2023-05-15T09:06:15;6.30;;;3.53;;
25531;SDS011;13429;48.816;9.118;2023-05-15T09:08:43;6.07;;;3.78;;
25531;SDS011;13429;48.816;9.118;2023-05-15T09:11:09;4.82;;;3.28;;
25531;SDS011;13429;48.816;9.118;2023-05-15T09:13:35;7.05;;;3.20;;
25531;SDS011;13429;48.816;9.118;2023-05-15T09:16:02;5.57;;;2.85;;
25531;SDS011;13429;48.816;9.118;2023-05-15T09:18:28;15.65;;;2.83;;
25531;SDS011;13429;48.816;9.118;2023-05-15T09:20:55;5.53;;;2.78;;
25531;SDS011;13429;48.816;9.118;2023-05-15T09:23:25;5.20;;;2.85;;
25531;SDS011;13429;48.816;9.118;2023-05-15T09:25:51;5.07;;;3.10;;
25531;SDS011;13429;48.816;9.118;2023-05-15T09:28:26;5.32;;;3.17;;
25531;SDS011;13429;48.816;9.118;2023-05-15T09:30:56;3.97;;;2.47;;
25531;SDS011;13429;48.816;9.118;2023-05-15T09:33:34;3.70;;;3.20;;
25531;SDS011;13429;48.816;9.118;2023-05-15T09:36:00;3.72;;;3.03;;
25531;SDS011;13429;48.816;9.118;2023-05-15T09:38:27;4.65;;;3.22;;
25531;SDS011;13429;48.816;9.118;2023-05-15T09:40:59;3.90;;;2.40;;
25531;SDS011;13429;48.816;9.118;2023-05-15T09:43:27;5.53;;;2.88;;
25531;SDS011;13429;48.816;9.118;2023-05-15T09:45:53;3.72;;;2.85;;
25531;SDS011;13429;48.816;9.118;2023-05-15T09:48:19;4.47;;;3.50;;
25531;SDS011;13429;48.816;9.118;2023-05-15T09:50:46;3.55;;;2.50;;
25531;SDS011;13429;48.816;9.118;2023-05-15T09:53:12;3.58;;;2.75;;
25531;SDS011;13429;48.816;9.118;2023-05-15T09:55:40;4.22;;;2.88;;
25531;SDS011;13429;48.816;9.118;2023-05-15T09:58:07;3.65;;;2.75;;
25531;SDS011;13429;48.816;9.118;2023-05-15T10:00:34;5.25;;;2.85;;
25531;SDS011;13429;48.816;9.118;2023-05-15T10:03:01;5.10;;;3.03;;
25531;SDS011;13429;48.816;9.118;2023-05-15T10:05:27;3.80;;;2.45;;
25531;SDS011;13429;48.816;9.118;2023-05-15T10:07:53;5.60;;;3.20;;
25531;SDS011;13429;48.816;9.118;2023-05-15T10:10:20;7.38;;;3.35;;
25531;SDS011;13429;48.816;9.118;2023-05-15T10:12:46;6.10;;;3.05;;
25531;SDS011;13429;48.816;9.118;2023-05-15T10:15:13;4.75;;;3.08;;
25531;SDS011;13429;48.816;9.118;2023-05-15T10:17:40;3.97;;;3.22;;
25531;SDS011;13429;48.816;9.118;2023-05-15T10:20:06;5.90;;;2.95;;
25531;SDS011;13429;48.816;9.118;2023-05-15T10:22:36;4.07;;;3.00;;
25531;SDS011;13429;48.816;9.118;2023-05-15T10:25:07;8.77;;;3.15;;
25531;SDS011;13429;48.816;9.118;2023-05-15T10:27:34;5.65;;;2.80;;
25531;SDS011;13429;48.816;9.118;2023-05-15T10:30:02;3.20;;;2.70;;
25531;SDS011;13429;48.816;9.118;2023-05-15T10:32:28;5.95;;;2.90;;
25531;SDS011;13429;48.816;9.118;2023-05-15T10:34:54;4.45;;;3.00;;
25531;SDS011;13429;48.816;9.118;2023-05-15T10:37:21;4.78;;;2.65;;
25531;SDS011;13429;48.816;9.118;2023-05-15T10:39:48;4.53;;;2.30;;
25531;SDS011;13429;48.816;9.118;2023-05-15T10:42:14;2.90;;;2.45;;
25531;SDS011;13429;48.816;9.118;2023-05-15T10:44:41;2.90;;;2.60;;
25531;SDS011;13429;48.816;9.118;2023-05-15T10:47:07;7.10;;;2.50;;
25531;SDS011;13429;48.816;9.118;2023-05-15T10:49:33;3.15;;;2.38;;
25531;SDS011;13429;48.816;9.118;2023-05-15T10:52:01;6.65;;;2.30;;
25531;SDS011;13429;48.816;9.118;2023-05-15T10:54:27;3.05;;;2.22;;
25531;SDS011;13429;48.816;9.118;2023-05-15T10:56:56;2.58;;;1.95;;
25531;SDS011;13429;48.816;9.118;2023-05-15T10:59:32;3.83;;;2.47;;
25531;SDS011;13429;48.816;9.118;2023-05-15T11:04:43;3.10;;;2.30;;
25531;SDS011;13429;48.816;9.118;2023-05-15T11:07:13;3.55;;;2.38;;
25531;SDS011;13429;48.816;9.118;2023-05-15T11:09:40;3.15;;;2.40;;
25531;SDS011;13429;48.816;9.118;2023-05-15T11:12:08;5.47;;;2.42;;
25531;SDS011;13429;48.816;9.118;2023-05-15T11:14:36;4.88;;;2.88;;
25531;SDS011;13429;48.816;9.118;2023-05-15T11:17:03;4.05;;;2.40;;
25531;SDS011;13429;48.816;9.118;2023-05-15T11:19:34;2.97;;;2.38;;
25531;SDS011;13429;48.816;9.118;2023-05-15T11:24:32;4.70;;;2.90;;
25531;SDS011;13429;48.816;9.118;2023-05-15T11:27:02;8.77;;;2.40;;
25531;SDS011;13429;48.816;9.118;2023-05-15T11:29:28;3.28;;;2.25;;
25531;SDS011;13429;48.816;9.118;2023-05-15T11:31:54;4.57;;;2.25;;
25531;SDS011;13429;48.816;9.118;2023-05-15T11:34:33;4.15;;;1.83;;
25531;SDS011;13429;48.816;9.118;2023-05-15T11:36:59;7.30;;;1.95;;
25531;SDS011;13429;48.816;9.118;2023-05-15T11:39:28;6.85;;;2.28;;
25531;SDS011;13429;48.816;9.118;2023-05-15T11:41:54;4.65;;;2.47;;
25531;SDS011;13429;48.816;9.118;2023-05-15T11:44:24;3.35;;;2.30;;
25531;SDS011;13429;48.816;9.118;2023-05-15T11:46:50;3.47;;;2.30;;
25531;SDS011;13429;48.816;9.118;2023-05-15T11:49:19;3.85;;;2.58;;
25531;SDS011;13429;48.816;9.118;2023-05-15T11:51:48;4.15;;;2.58;;
25531;SDS011;13429;48.816;9.118;2023-05-15T11:54:16;5.50;;;2.33;;
25531;SDS011;13429;48.816;9.118;2023-05-15T11:56:42;3.00;;;2.38;;
25531;SDS011;13429;48.816;9.118;2023-05-15T11:59:09;3.15;;;2.30;;
25531;SDS011;13429;48.816;9.118;2023-05-15T12:01:40;2.53;;;2.22;;
25531;SDS011;13429;48.816;9.118;2023-05-15T12:04:16;2.60;;;2.10;;
25531;SDS011;13429;48.816;9.118;2023-05-15T12:06:42;4.60;;;2.17;;
25531;SDS011;13429;48.816;9.118;2023-05-15T12:09:14;2.92;;;2.22;;
25531;SDS011;13429;48.816;9.118;2023-05-15T12:11:46;2.88;;;2.50;;
25531;SDS011;13429;48.816;9.118;2023-05-15T12:16:38;4.68;;;2.08;;
25531;SDS011;13429;48.816;9.118;2023-05-15T12:19:04;4.45;;;2.28;;
25531;SDS011;13429;48.816;9.118;2023-05-15T12:21:30;2.10;;;1.75;;
25531;SDS011;13429;48.816;9.118;2023-05-15T12:23:56;5.20;;;2.35;;
25531;SDS011;13429;48.816;9.118;2023-05-15T12:26:22;3.13;;;2.58;;
25531;SDS011;13429;48.816;9.118;2023-05-15T12:28:49;3.95;;;2.20;;
25531;SDS011;13429;48.816;9.118;2023-05-15T12:31:15;2.78;;;2.17;;
25531;SDS011;13429;48.816;9.118;2023-05-15T12:33:42;5.05;;;1.92;;
25531;SDS011;13429;48.816;9.118;2023-05-15T12:36:08;4.50;;;2.38;;
25531;SDS011;13429;48.816;9.118;2023-05-15T12:38:37;2.95;;;2.17;;
25531;SDS011;13429;48.816;9.118;2023-05-15T12:41:04;3.17;;;2.13;;
25531;SDS011;13429;48.816;9.118;2023-05-15T12:43:30;2.53;;;1.95;;
25531;SDS011;13429;48.816;9.118;2023-05-15T12:45:58;3.50;;;2.10;;
25531;SDS011;13429;48.816;9.118;2023-05-15T12:48:28;4.22;;;2.15;;
25531;SDS011;13429;48.816;9.118;2023-05-15T12:50:55;5.03;;;2.00;;
25531;SDS011;13429;48.816;9.118;2023-05-15T12:53:21;4.70;;;2.35;;
25531;SDS011;13429;48.816;9.118;2023-05-15T12:55:47;2.47;;;1.88;;
25531;SDS011;13429;48.816;9.118;2023-05-15T12:58:14;3.05;;;1.80;;
25531;SDS011;13429;48.816;9.118;2023-05-15T13:00:43;3.08;;;2.25;;
25531;SDS011;13429;48.816;9.118;2023-05-15T13:03:13;2.85;;;2.25;;
25531;SDS011;13429;48.816;9.118;2023-05-15T13:05:41;5.22;;;2.30;;
25531;SDS011;13429;48.816;9.118;2023-05-15T13:08:07;6.13;;;2.40;;
25531;SDS011;13429;48.816;9.118;2023-05-15T13:10:34;2.63;;;2.28;;
25531;SDS011;13429;48.816;9.118;2023-05-15T13:13:01;2.92;;;2.50;;
25531;SDS011;13429;48.816;9.118;2023-05-15T13:18:14;5.78;;;3.22;;
25531;SDS011;13429;48.816;9.118;2023-05-15T13:23:05;3.53;;;2.97;;
25531;SDS011;13429;48.816;9.118;2023-05-15T13:25:32;4.97;;;2.55;;
25531;SDS011;13429;48.816;9.118;2023-05-15T13:27:59;7.45;;;3.42;;
25531;SDS011;13429;48.816;9.118;2023-05-15T13:30:26;4.97;;;2.67;;
25531;SDS011;13429;48.816;9.118;2023-05-15T13:32:52;4.03;;;2.85;;
25531;SDS011;13429;48.816;9.118;2023-05-15T13:35:18;3.92;;;2.65;;
25531;SDS011;13429;48.816;9.118;2023-05-15T13:37:45;8.00;;;3.25;;
25531;SDS011;13429;48.816;9.118;2023-05-15T13:40:11;8.18;;;3.17;;
25531;SDS011;13429;48.816;9.118;2023-05-15T13:42:37;5.75;;;3.10;;
25531;SDS011;13429;48.816;9.118;2023-05-15T13:45:04;6.53;;;3.05;;
25531;SDS011;13429;48.816;9.118;2023-05-15T13:47:31;5.00;;;3.00;;
25531;SDS011;13429;48.816;9.118;2023-05-15T13:49:57;7.85;;;3.92;;
25531;SDS011;13429;48.816;9.118;2023-05-15T13:52:24;5.68;;;3.30;;
25531;SDS011;13429;48.816;9.118;2023-05-15T13:54:50;7.97;;;3.58;;
25531;SDS011;13429;48.816;9.118;2023-05-15T13:57:17;3.85;;;2.90;;
25531;SDS011;13429;48.816;9.118;2023-05-15T13:59:43;3.83;;;3.42;;
25531;SDS011;13429;48.816;9.118;2023-05-15T14:02:09;3.88;;;2.97;;
25531;SDS011;13429;48.816;9.118;2023-05-15T14:04:35;6.97;;;3.50;;
25531;SDS011;13429;48.816;9.118;2023-05-15T14:07:01;8.05;;;3.13;;
25531;SDS011;13429;48.816;9.118;2023-05-15T14:09:27;5.30;;;2.92;;
25531;SDS011;13429;48.816;9.118;2023-05-15T14:11:53;3.88;;;3.08;;
25531;SDS011;13429;48.816;9.118;2023-05-15T14:14:19;3.80;;;3.03;;
25531;SDS011;13429;48.816;9.118;2023-05-15T14:16:46;2.78;;;2.53;;
25531;SDS011;13429;48.816;9.118;2023-05-15T14:19:12;4.25;;;3.35;;
25531;SDS011;13429;48.816;9.118;2023-05-15T14:21:38;6.80;;;3.33;;
25531;SDS011;13429;48.816;9.118;2023-05-15T14:24:04;5.93;;;3.15;;
25531;SDS011;13429;48.816;9.118;2023-05-15T14:26:31;4.85;;;3.58;;
25531;SDS011;13429;48.816;9.118;2023-05-15T14:28:57;6.40;;;3.53;;
25531;SDS011;13429;48.816;9.118;2023-05-15T14:31:23;5.63;;;3.05;;
25531;SDS011;13429;48.816;9.118;2023-05-15T14:33:50;5.88;;;2.70;;
25531;SDS011;13429;48.816;9.118;2023-05-15T14:36:16;7.32;;;2.90;;
25531;SDS011;13429;48.816;9.118;2023-05-15T14:38:42;3.75;;;2.78;;
25531;SDS011;13429;48.816;9.118;2023-05-15T14:41:09;4.53;;;2.55;;
25531;SDS011;13429;48.816;9.118;2023-05-15T14:43:35;3.42;;;2.80;;
25531;SDS011;13429;48.816;9.118;2023-05-15T14:46:02;4.65;;;3.03;;
25531;SDS011;13429;48.816;9.118;2023-05-15T14:48:28;4.80;;;2.72;;
25531;SDS011;13429;48.816;9.118;2023-05-15T14:50:54;4.95;;;3.50;;
25531;SDS011;13429;48.816;9.118;2023-05-15T14:53:20;4.07;;;2.88;;
25531;SDS011;13429;48.816;9.118;2023-05-15T14:55:46;3.17;;;2.15;;
25531;SDS011;13429;48.816;9.118;2023-05-15T14:58:12;6.80;;;3.42;;
25531;SDS011;13429;48.816;9.118;2023-05-15T15:00:38;6.85;;;2.40;;
25531;SDS011;13429;48.816;9.118;2023-05-15T15:03:04;4.35;;;2.50;;
25531;SDS011;13429;48.816;9.118;2023-05-15T15:05:30;4.47;;;2.47;;
25531;SDS011;13429;48.816;9.118;2023-05-15T15:08:00;4.90;;;2.75;;
25531;SDS011;13429;48.816;9.118;2023-05-15T15:10:27;3.33;;;2.03;;